Apache Junction, AZ

3:43 AM MST on August 20, 2014 (GMT -0700)
Peralta Trails | Change Station
CLOSE
Current Station
Personal Weather Station
Location: Gold Canyon, AZ
Elevation: 1835 ft
Nearby Weather Stations

Elev 1835 ft 33.34 °N, 111.43 °W | Updated 3 minutes ago

Mostly Cloudy
Mostly Cloudy
73.9 °F
Feels Like 75 °F
N
0.0
Wind Variable Wind from North
Gusts 0.0 mph

Today
High -- | Low -- °F
--% Chance of Precip.
Yesterday
High -- | Low -- °F
Precip. -- in
5:51 AM 7:05 PM
Waning Crescent, 22% visible
Pressure 29.90 in
Visibility 10.0 miles
Clouds Mostly Cloudy 10000 ft
Heat Index 75 °F
Dew Point 64 °F
Humidity 72%
Rainfall 0.00 in
Snow Depth Not available.
UV 0 out of 12
Pollen .70 out of 12
Ozone Good
Flu Activity Not available.
METAR KIWA 201035Z AUTO 13004KT 10SM BKN100 23/18 A2990 RMK AO2

More Conditions Fewer Conditions

Pressure 29.90 in
Visibility 10.0 miles
Clouds Mostly Cloudy 10000 ft
Heat Index 75 °F
Dew Point 64 °F
Humidity 72%
Rainfall 0.00 in
Snow Depth Not available.
UV 0 out of 12
Pollen .70 out of 12
Ozone Good
Flu Activity Not available.
METAR KIWA 201035Z AUTO 13004KT 10SM BKN100 23/18 A2990 RMK AO2

More Conditions Fewer Conditions

10-Day Weather Forecast

Almanac

Astronomy

Aug. 20, 2014 Rise Set
Actual Time 5:51 AM MST 7:05 PM MST
Civil Twilight 5:25 AM MST 7:31 PM MST
Nautical Twilight 4:54 AM MST 8:01 PM MST
Astronomical Twilight 4:22 AM MST 8:33 PM MST
Moon 1:39 AM MST 3:47 PM MST
Length of Visible Light 14h 05m
Length of Day
13h 13m
Tomorrow will be 1m 52s shorter.
Waning Crescent, 22% of the Moon is Illuminated
Today
Waning Crescent
Aug 25
New
Sep 2
First Quarter
Sep 8
Full
Sep 15
Last Quarter

Today's Extremes

State Highs State Lows

Community

WunderPhotos

Upload Photos

1,745,605 photos uploaded!

Nearby

Air Quality

  Air Quality AQ Index Pollutant
Yesterday Good
OZONE
Current Good
OZONE
Wednesday Good
OZONE
Wednesday Good
PM10
Thursday Good
OZONE
Thursday Good
PM10
Friday Good
OZONE
Friday Good
PM10
Saturday Good
OZONE
Saturday Good
PM10
Sunday Good
OZONE
Sunday Good
PM10

Snow Depth

Station Depth Elevation
Workman Creek 2 in 6900 ft
Promontory 0 in 7930 ft
Heber 0 in 7640 ft
Wildcat 0 in 7850 ft
Mormon Mountain 0 in 7500 ft

Earthquake Activity

City Distance Mag. Time & Date
No recent earthquake activity has been reported nearby.
Minimum magnitude displayed is 2.5.

Coastal Water Temperatures

Place Temperature
No Stations Reporting

Nearby Weather Stations